Milburn, Nebraska
Current Conditions -  °F | °C
As of 10:53 PM on Friday 31 Oct 2014 (Local Time) from KODX Reporting Station
Clear Clear  
Wind Chill: 23°   Ceiling: Unl
Heat Index: 31°   Visibility: 10mi
Dew Point: 14°   Wind: 8mph
Humidity: 50%   Direction: 150°SSE
Pressure: 30.36"   Gusts: NA
Location:  41.6612°N, 99.7844°W
Report Text: KODX 010353Z AUTO 15007KT 10SM CLR M01/M10 A3036 RMK AO2 SLP303 T10061100
Loading
Personal Weather Stations






























Interactive Weather Map
Tropical Storm Tracking
New forecast layout! Learn more

10-Day Weather Forecast

Advertisements
Track Severe Weather on mobile